sensor_id;sensor_type;location;lat;lon;timestamp;P1;durP1;ratioP1;P2;durP2;ratioP2
80936;SDS011;70395;51.382;7.074;2023-08-07T00:01:53;3.13;;;1.83;;
80936;SDS011;70395;51.382;7.074;2023-08-07T00:04:19;1.97;;;1.77;;
80936;SDS011;70395;51.382;7.074;2023-08-07T00:06:45;3.70;;;1.70;;
80936;SDS011;70395;51.382;7.074;2023-08-07T00:09:11;2.83;;;1.47;;
80936;SDS011;70395;51.382;7.074;2023-08-07T00:11:37;3.23;;;1.57;;
80936;SDS011;70395;51.382;7.074;2023-08-07T00:14:03;3.60;;;1.30;;
80936;SDS011;70395;51.382;7.074;2023-08-07T00:16:28;2.20;;;1.70;;
80936;SDS011;70395;51.382;7.074;2023-08-07T00:18:54;2.77;;;1.60;;
80936;SDS011;70395;51.382;7.074;2023-08-07T00:21:21;3.50;;;2.00;;
80936;SDS011;70395;51.382;7.074;2023-08-07T00:23:48;3.77;;;1.70;;
80936;SDS011;70395;51.382;7.074;2023-08-07T00:26:15;4.30;;;2.47;;
80936;SDS011;70395;51.382;7.074;2023-08-07T00:28:41;3.90;;;2.30;;
80936;SDS011;70395;51.382;7.074;2023-08-07T00:31:06;3.20;;;2.10;;
80936;SDS011;70395;51.382;7.074;2023-08-07T00:33:32;5.10;;;2.60;;
80936;SDS011;70395;51.382;7.074;2023-08-07T00:35:58;5.50;;;2.77;;
80936;SDS011;70395;51.382;7.074;2023-08-07T00:38:24;3.83;;;2.77;;
80936;SDS011;70395;51.382;7.074;2023-08-07T00:40:50;9.17;;;2.97;;
80936;SDS011;70395;51.382;7.074;2023-08-07T00:43:15;5.97;;;3.07;;
80936;SDS011;70395;51.382;7.074;2023-08-07T00:45:42;7.07;;;3.83;;
80936;SDS011;70395;51.382;7.074;2023-08-07T00:48:11;5.03;;;2.53;;
80936;SDS011;70395;51.382;7.074;2023-08-07T00:50:39;6.57;;;2.90;;
80936;SDS011;70395;51.382;7.074;2023-08-07T00:53:07;9.60;;;3.00;;
80936;SDS011;70395;51.382;7.074;2023-08-07T00:55:34;4.83;;;3.10;;
80936;SDS011;70395;51.382;7.074;2023-08-07T00:58:00;6.90;;;2.90;;
80936;SDS011;70395;51.382;7.074;2023-08-07T01:00:29;6.37;;;2.47;;
80936;SDS011;70395;51.382;7.074;2023-08-07T01:02:55;5.07;;;2.87;;
80936;SDS011;70395;51.382;7.074;2023-08-07T01:05:23;5.07;;;2.47;;
80936;SDS011;70395;51.382;7.074;2023-08-07T01:07:53;6.03;;;2.37;;
80936;SDS011;70395;51.382;7.074;2023-08-07T01:10:25;4.00;;;2.90;;
80936;SDS011;70395;51.382;7.074;2023-08-07T01:15:59;6.53;;;2.20;;
80936;SDS011;70395;51.382;7.074;2023-08-07T01:18:34;7.43;;;2.70;;
80936;SDS011;70395;51.382;7.074;2023-08-07T01:21:03;4.57;;;2.10;;
80936;SDS011;70395;51.382;7.074;2023-08-07T01:23:29;11.53;;;3.00;;
80936;SDS011;70395;51.382;7.074;2023-08-07T01:25:55;5.73;;;2.70;;
80936;SDS011;70395;51.382;7.074;2023-08-07T01:28:33;4.10;;;1.80;;
80936;SDS011;70395;51.382;7.074;2023-08-07T01:31:07;3.47;;;2.00;;
80936;SDS011;70395;51.382;7.074;2023-08-07T01:33:47;8.67;;;2.63;;
80936;SDS011;70395;51.382;7.074;2023-08-07T01:36:28;5.13;;;2.07;;
80936;SDS011;70395;51.382;7.074;2023-08-07T01:38:56;4.73;;;1.93;;
80936;SDS011;70395;51.382;7.074;2023-08-07T01:41:25;3.83;;;1.87;;
80936;SDS011;70395;51.382;7.074;2023-08-07T01:43:52;5.43;;;2.03;;
80936;SDS011;70395;51.382;7.074;2023-08-07T01:46:19;6.47;;;2.47;;
80936;SDS011;70395;51.382;7.074;2023-08-07T01:48:45;7.77;;;1.80;;
80936;SDS011;70395;51.382;7.074;2023-08-07T01:51:11;5.27;;;1.83;;
80936;SDS011;70395;51.382;7.074;2023-08-07T01:53:37;4.27;;;1.93;;
80936;SDS011;70395;51.382;7.074;2023-08-07T01:56:03;4.10;;;1.60;;
80936;SDS011;70395;51.382;7.074;2023-08-07T01:58:29;5.80;;;1.50;;
80936;SDS011;70395;51.382;7.074;2023-08-07T02:00:54;3.87;;;1.57;;
80936;SDS011;70395;51.382;7.074;2023-08-07T02:03:20;2.93;;;1.93;;
80936;SDS011;70395;51.382;7.074;2023-08-07T02:05:46;3.90;;;1.43;;
80936;SDS011;70395;51.382;7.074;2023-08-07T02:08:12;7.43;;;1.50;;
80936;SDS011;70395;51.382;7.074;2023-08-07T02:10:38;4.90;;;1.60;;
80936;SDS011;70395;51.382;7.074;2023-08-07T02:13:04;4.23;;;1.83;;
80936;SDS011;70395;51.382;7.074;2023-08-07T02:15:29;4.43;;;2.00;;
80936;SDS011;70395;51.382;7.074;2023-08-07T02:17:55;2.67;;;1.80;;
80936;SDS011;70395;51.382;7.074;2023-08-07T02:20:23;3.63;;;1.40;;
80936;SDS011;70395;51.382;7.074;2023-08-07T02:22:49;3.80;;;1.23;;
80936;SDS011;70395;51.382;7.074;2023-08-07T02:25:15;5.27;;;1.70;;
80936;SDS011;70395;51.382;7.074;2023-08-07T02:27:41;2.83;;;1.50;;
80936;SDS011;70395;51.382;7.074;2023-08-07T02:30:06;2.80;;;1.03;;
80936;SDS011;70395;51.382;7.074;2023-08-07T02:32:33;3.60;;;1.73;;
80936;SDS011;70395;51.382;7.074;2023-08-07T02:34:59;3.90;;;1.50;;
80936;SDS011;70395;51.382;7.074;2023-08-07T02:37:25;1.90;;;1.13;;
80936;SDS011;70395;51.382;7.074;2023-08-07T02:39:50;2.87;;;1.00;;
80936;SDS011;70395;51.382;7.074;2023-08-07T02:42:18;3.27;;;1.30;;
80936;SDS011;70395;51.382;7.074;2023-08-07T02:44:44;3.90;;;1.50;;
80936;SDS011;70395;51.382;7.074;2023-08-07T02:47:10;4.97;;;1.47;;
80936;SDS011;70395;51.382;7.074;2023-08-07T02:49:35;3.77;;;2.00;;
80936;SDS011;70395;51.382;7.074;2023-08-07T02:52:01;3.83;;;1.50;;
80936;SDS011;70395;51.382;7.074;2023-08-07T02:54:27;5.70;;;1.90;;
80936;SDS011;70395;51.382;7.074;2023-08-07T02:56:53;5.10;;;2.13;;
80936;SDS011;70395;51.382;7.074;2023-08-07T02:59:19;4.70;;;2.40;;
80936;SDS011;70395;51.382;7.074;2023-08-07T03:01:45;3.73;;;3.00;;
80936;SDS011;70395;51.382;7.074;2023-08-07T03:04:10;3.50;;;2.47;;
80936;SDS011;70395;51.382;7.074;2023-08-07T03:06:36;7.57;;;2.83;;
80936;SDS011;70395;51.382;7.074;2023-08-07T03:09:02;3.50;;;2.40;;
80936;SDS011;70395;51.382;7.074;2023-08-07T03:11:28;5.70;;;2.13;;
80936;SDS011;70395;51.382;7.074;2023-08-07T03:13:54;4.73;;;2.87;;
80936;SDS011;70395;51.382;7.074;2023-08-07T03:16:20;7.50;;;2.40;;
80936;SDS011;70395;51.382;7.074;2023-08-07T03:18:46;2.57;;;2.27;;
80936;SDS011;70395;51.382;7.074;2023-08-07T03:21:12;2.03;;;1.50;;
80936;SDS011;70395;51.382;7.074;2023-08-07T03:23:37;5.30;;;2.40;;
80936;SDS011;70395;51.382;7.074;2023-08-07T03:26:04;8.10;;;3.13;;
80936;SDS011;70395;51.382;7.074;2023-08-07T03:28:35;3.80;;;2.20;;
80936;SDS011;70395;51.382;7.074;2023-08-07T03:31:02;3.30;;;2.60;;
80936;SDS011;70395;51.382;7.074;2023-08-07T03:33:28;5.00;;;2.37;;
80936;SDS011;70395;51.382;7.074;2023-08-07T03:35:54;6.60;;;2.77;;
80936;SDS011;70395;51.382;7.074;2023-08-07T03:38:20;4.77;;;2.30;;
80936;SDS011;70395;51.382;7.074;2023-08-07T03:40:46;6.77;;;2.90;;
80936;SDS011;70395;51.382;7.074;2023-08-07T03:43:12;6.10;;;2.93;;
80936;SDS011;70395;51.382;7.074;2023-08-07T03:45:38;6.63;;;2.70;;
80936;SDS011;70395;51.382;7.074;2023-08-07T03:48:05;10.40;;;2.90;;
80936;SDS011;70395;51.382;7.074;2023-08-07T03:50:30;10.07;;;3.20;;
80936;SDS011;70395;51.382;7.074;2023-08-07T03:52:59;6.67;;;2.53;;
80936;SDS011;70395;51.382;7.074;2023-08-07T03:55:26;5.50;;;2.63;;
80936;SDS011;70395;51.382;7.074;2023-08-07T03:57:52;5.23;;;2.97;;
80936;SDS011;70395;51.382;7.074;2023-08-07T04:00:18;5.40;;;3.07;;
80936;SDS011;70395;51.382;7.074;2023-08-07T04:02:44;7.20;;;3.90;;
80936;SDS011;70395;51.382;7.074;2023-08-07T04:05:10;10.00;;;3.90;;
80936;SDS011;70395;51.382;7.074;2023-08-07T04:07:36;5.93;;;3.40;;
80936;SDS011;70395;51.382;7.074;2023-08-07T04:10:02;6.93;;;3.50;;
80936;SDS011;70395;51.382;7.074;2023-08-07T04:12:28;18.40;;;5.03;;
80936;SDS011;70395;51.382;7.074;2023-08-07T04:14:53;13.00;;;4.07;;
80936;SDS011;70395;51.382;7.074;2023-08-07T04:17:19;13.03;;;4.23;;
80936;SDS011;70395;51.382;7.074;2023-08-07T04:19:45;7.27;;;3.50;;
80936;SDS011;70395;51.382;7.074;2023-08-07T04:22:11;9.30;;;3.40;;
80936;SDS011;70395;51.382;7.074;2023-08-07T04:24:37;9.03;;;4.37;;
80936;SDS011;70395;51.382;7.074;2023-08-07T04:27:02;11.57;;;3.10;;
80936;SDS011;70395;51.382;7.074;2023-08-07T04:29:29;6.03;;;3.50;;
80936;SDS011;70395;51.382;7.074;2023-08-07T04:31:54;8.10;;;3.10;;
80936;SDS011;70395;51.382;7.074;2023-08-07T04:34:20;7.60;;;3.37;;
80936;SDS011;70395;51.382;7.074;2023-08-07T04:36:46;9.00;;;2.93;;
80936;SDS011;70395;51.382;7.074;2023-08-07T04:39:12;10.97;;;3.67;;
80936;SDS011;70395;51.382;7.074;2023-08-07T04:41:38;8.63;;;3.50;;
80936;SDS011;70395;51.382;7.074;2023-08-07T04:44:04;10.73;;;3.83;;
80936;SDS011;70395;51.382;7.074;2023-08-07T04:46:30;12.87;;;3.90;;
80936;SDS011;70395;51.382;7.074;2023-08-07T04:48:56;14.63;;;3.90;;
80936;SDS011;70395;51.382;7.074;2023-08-07T04:51:21;6.97;;;2.97;;
80936;SDS011;70395;51.382;7.074;2023-08-07T04:53:48;6.67;;;3.23;;
80936;SDS011;70395;51.382;7.074;2023-08-07T04:56:15;6.10;;;2.90;;
80936;SDS011;70395;51.382;7.074;2023-08-07T04:58:42;7.10;;;3.90;;
80936;SDS011;70395;51.382;7.074;2023-08-07T05:01:08;10.63;;;3.80;;
80936;SDS011;70395;51.382;7.074;2023-08-07T05:03:34;11.90;;;3.40;;
80936;SDS011;70395;51.382;7.074;2023-08-07T05:06:00;7.83;;;3.37;;
80936;SDS011;70395;51.382;7.074;2023-08-07T05:08:26;7.73;;;3.10;;
80936;SDS011;70395;51.382;7.074;2023-08-07T05:10:53;11.20;;;4.00;;
80936;SDS011;70395;51.382;7.074;2023-08-07T05:13:19;9.33;;;4.40;;
80936;SDS011;70395;51.382;7.074;2023-08-07T05:15:46;8.83;;;4.00;;
80936;SDS011;70395;51.382;7.074;2023-08-07T05:18:15;14.67;;;4.97;;
80936;SDS011;70395;51.382;7.074;2023-08-07T05:20:41;10.13;;;5.20;;
80936;SDS011;70395;51.382;7.074;2023-08-07T05:23:07;9.97;;;5.33;;
80936;SDS011;70395;51.382;7.074;2023-08-07T05:25:35;13.33;;;4.87;;
80936;SDS011;70395;51.382;7.074;2023-08-07T05:28:02;9.43;;;5.00;;
80936;SDS011;70395;51.382;7.074;2023-08-07T05:30:28;10.47;;;5.00;;
80936;SDS011;70395;51.382;7.074;2023-08-07T05:32:54;10.40;;;4.93;;
80936;SDS011;70395;51.382;7.074;2023-08-07T05:35:19;11.23;;;5.17;;
80936;SDS011;70395;51.382;7.074;2023-08-07T05:37:45;8.00;;;4.30;;
80936;SDS011;70395;51.382;7.074;2023-08-07T05:40:11;7.57;;;4.07;;
80936;SDS011;70395;51.382;7.074;2023-08-07T05:42:37;7.13;;;4.50;;
80936;SDS011;70395;51.382;7.074;2023-08-07T05:45:03;5.93;;;3.57;;
80936;SDS011;70395;51.382;7.074;2023-08-07T05:47:29;9.50;;;3.87;;
80936;SDS011;70395;51.382;7.074;2023-08-07T05:49:57;6.53;;;3.93;;
80936;SDS011;70395;51.382;7.074;2023-08-07T05:52:23;6.00;;;4.10;;
80936;SDS011;70395;51.382;7.074;2023-08-07T05:54:49;6.00;;;3.90;;
80936;SDS011;70395;51.382;7.074;2023-08-07T05:57:14;8.83;;;3.93;;
80936;SDS011;70395;51.382;7.074;2023-08-07T05:59:40;5.67;;;4.17;;
80936;SDS011;70395;51.382;7.074;2023-08-07T06:02:06;4.73;;;3.50;;
80936;SDS011;70395;51.382;7.074;2023-08-07T06:04:32;5.07;;;3.40;;
80936;SDS011;70395;51.382;7.074;2023-08-07T06:06:58;5.30;;;3.70;;
80936;SDS011;70395;51.382;7.074;2023-08-07T06:09:24;8.07;;;4.40;;
80936;SDS011;70395;51.382;7.074;2023-08-07T06:11:49;4.00;;;3.20;;
80936;SDS011;70395;51.382;7.074;2023-08-07T06:14:15;7.90;;;3.90;;
80936;SDS011;70395;51.382;7.074;2023-08-07T06:16:41;5.63;;;4.00;;
80936;SDS011;70395;51.382;7.074;2023-08-07T06:19:07;8.77;;;4.10;;
80936;SDS011;70395;51.382;7.074;2023-08-07T06:21:33;6.00;;;4.97;;
80936;SDS011;70395;51.382;7.074;2023-08-07T06:23:59;8.40;;;4.50;;
80936;SDS011;70395;51.382;7.074;2023-08-07T06:26:25;8.80;;;4.10;;
80936;SDS011;70395;51.382;7.074;2023-08-07T06:28:51;7.37;;;4.30;;
80936;SDS011;70395;51.382;7.074;2023-08-07T06:31:17;6.70;;;3.33;;
80936;SDS011;70395;51.382;7.074;2023-08-07T06:33:43;4.83;;;3.17;;
80936;SDS011;70395;51.382;7.074;2023-08-07T06:36:09;6.00;;;3.63;;
80936;SDS011;70395;51.382;7.074;2023-08-07T06:38:35;7.27;;;3.93;;
80936;SDS011;70395;51.382;7.074;2023-08-07T06:41:01;5.37;;;3.40;;
80936;SDS011;70395;51.382;7.074;2023-08-07T06:43:27;4.73;;;2.80;;
80936;SDS011;70395;51.382;7.074;2023-08-07T06:45:54;6.97;;;3.07;;
80936;SDS011;70395;51.382;7.074;2023-08-07T06:48:22;5.80;;;3.00;;
80936;SDS011;70395;51.382;7.074;2023-08-07T06:50:48;10.57;;;2.70;;
80936;SDS011;70395;51.382;7.074;2023-08-07T06:53:15;6.43;;;4.10;;
80936;SDS011;70395;51.382;7.074;2023-08-07T06:55:42;5.93;;;2.80;;
80936;SDS011;70395;51.382;7.074;2023-08-07T06:58:08;5.50;;;2.57;;
80936;SDS011;70395;51.382;7.074;2023-08-07T07:00:35;7.77;;;2.83;;
80936;SDS011;70395;51.382;7.074;2023-08-07T07:03:02;6.87;;;2.47;;
80936;SDS011;70395;51.382;7.074;2023-08-07T07:05:29;4.03;;;2.53;;
80936;SDS011;70395;51.382;7.074;2023-08-07T07:07:55;5.00;;;2.80;;
80936;SDS011;70395;51.382;7.074;2023-08-07T07:10:22;3.60;;;2.27;;
80936;SDS011;70395;51.382;7.074;2023-08-07T07:12:48;4.37;;;2.40;;
80936;SDS011;70395;51.382;7.074;2023-08-07T07:15:14;3.60;;;2.40;;
80936;SDS011;70395;51.382;7.074;2023-08-07T07:17:40;4.90;;;2.70;;
80936;SDS011;70395;51.382;7.074;2023-08-07T07:20:06;4.73;;;2.70;;
80936;SDS011;70395;51.382;7.074;2023-08-07T07:22:34;4.57;;;2.50;;
80936;SDS011;70395;51.382;7.074;2023-08-07T07:25:00;5.50;;;2.60;;
80936;SDS011;70395;51.382;7.074;2023-08-07T07:27:26;3.93;;;2.60;;
80936;SDS011;70395;51.382;7.074;2023-08-07T07:29:52;3.87;;;2.30;;
80936;SDS011;70395;51.382;7.074;2023-08-07T07:32:18;5.07;;;2.43;;
80936;SDS011;70395;51.382;7.074;2023-08-07T07:34:44;3.03;;;2.47;;
80936;SDS011;70395;51.382;7.074;2023-08-07T07:37:10;4.93;;;2.50;;
80936;SDS011;70395;51.382;7.074;2023-08-07T07:39:36;3.77;;;2.07;;
80936;SDS011;70395;51.382;7.074;2023-08-07T07:42:02;4.60;;;2.50;;
80936;SDS011;70395;51.382;7.074;2023-08-07T07:44:29;4.87;;;2.50;;
80936;SDS011;70395;51.382;7.074;2023-08-07T07:46:56;4.90;;;2.50;;
80936;SDS011;70395;51.382;7.074;2023-08-07T07:49:22;2.77;;;2.00;;
80936;SDS011;70395;51.382;7.074;2023-08-07T07:51:47;5.07;;;2.50;;
80936;SDS011;70395;51.382;7.074;2023-08-07T07:54:14;3.93;;;2.30;;
80936;SDS011;70395;51.382;7.074;2023-08-07T07:56:40;7.50;;;2.30;;
80936;SDS011;70395;51.382;7.074;2023-08-07T07:59:09;3.77;;;2.03;;
80936;SDS011;70395;51.382;7.074;2023-08-07T08:01:37;3.10;;;1.90;;
80936;SDS011;70395;51.382;7.074;2023-08-07T08:04:03;4.40;;;2.83;;
80936;SDS011;70395;51.382;7.074;2023-08-07T08:06:29;4.27;;;2.83;;
80936;SDS011;70395;51.382;7.074;2023-08-07T08:08:55;2.83;;;2.10;;
80936;SDS011;70395;51.382;7.074;2023-08-07T08:11:21;4.70;;;2.10;;
80936;SDS011;70395;51.382;7.074;2023-08-07T08:13:47;4.77;;;2.30;;
80936;SDS011;70395;51.382;7.074;2023-08-07T08:16:13;4.37;;;2.30;;
80936;SDS011;70395;51.382;7.074;2023-08-07T08:18:40;6.60;;;3.17;;
80936;SDS011;70395;51.382;7.074;2023-08-07T08:21:05;8.90;;;3.00;;
80936;SDS011;70395;51.382;7.074;2023-08-07T08:23:31;4.30;;;2.47;;
80936;SDS011;70395;51.382;7.074;2023-08-07T08:25:57;5.93;;;2.90;;
80936;SDS011;70395;51.382;7.074;2023-08-07T08:28:23;7.10;;;3.47;;
80936;SDS011;70395;51.382;7.074;2023-08-07T08:30:49;5.33;;;3.10;;
80936;SDS011;70395;51.382;7.074;2023-08-07T08:33:15;3.10;;;2.63;;
80936;SDS011;70395;51.382;7.074;2023-08-07T08:35:42;7.23;;;3.40;;
80936;SDS011;70395;51.382;7.074;2023-08-07T08:38:08;5.40;;;3.13;;
80936;SDS011;70395;51.382;7.074;2023-08-07T08:40:34;4.70;;;3.90;;
80936;SDS011;70395;51.382;7.074;2023-08-07T08:43:03;7.00;;;3.57;;
80936;SDS011;70395;51.382;7.074;2023-08-07T08:45:31;4.27;;;3.00;;
80936;SDS011;70395;51.382;7.074;2023-08-07T08:48:02;5.73;;;3.43;;
80936;SDS011;70395;51.382;7.074;2023-08-07T08:50:30;5.70;;;3.37;;
80936;SDS011;70395;51.382;7.074;2023-08-07T08:52:58;8.37;;;3.53;;
80936;SDS011;70395;51.382;7.074;2023-08-07T08:55:27;8.40;;;4.13;;
80936;SDS011;70395;51.382;7.074;2023-08-07T08:57:55;13.37;;;4.17;;
80936;SDS011;70395;51.382;7.074;2023-08-07T09:00:25;8.73;;;4.13;;
80936;SDS011;70395;51.382;7.074;2023-08-07T09:02:54;10.80;;;4.87;;
80936;SDS011;70395;51.382;7.074;2023-08-07T09:05:21;4.90;;;3.70;;
80936;SDS011;70395;51.382;7.074;2023-08-07T09:07:47;9.83;;;3.90;;
80936;SDS011;70395;51.382;7.074;2023-08-07T09:10:14;10.03;;;3.93;;
80936;SDS011;70395;51.382;7.074;2023-08-07T09:12:44;10.83;;;4.00;;
80936;SDS011;70395;51.382;7.074;2023-08-07T09:15:22;7.90;;;3.53;;
80936;SDS011;70395;51.382;7.074;2023-08-07T09:17:50;10.20;;;4.03;;
80936;SDS011;70395;51.382;7.074;2023-08-07T09:20:19;10.00;;;4.03;;
80936;SDS011;70395;51.382;7.074;2023-08-07T09:22:46;7.43;;;3.60;;
80936;SDS011;70395;51.382;7.074;2023-08-07T09:25:11;7.63;;;3.37;;
80936;SDS011;70395;51.382;7.074;2023-08-07T09:27:38;9.90;;;3.50;;
80936;SDS011;70395;51.382;7.074;2023-08-07T09:30:07;5.57;;;3.17;;
80936;SDS011;70395;51.382;7.074;2023-08-07T09:32:34;6.33;;;2.87;;
80936;SDS011;70395;51.382;7.074;2023-08-07T09:35:05;5.50;;;3.47;;
80936;SDS011;70395;51.382;7.074;2023-08-07T09:37:33;8.90;;;3.13;;
80936;SDS011;70395;51.382;7.074;2023-08-07T09:40:02;6.77;;;3.37;;
80936;SDS011;70395;51.382;7.074;2023-08-07T09:42:30;7.40;;;3.23;;
80936;SDS011;70395;51.382;7.074;2023-08-07T09:44:59;7.60;;;3.20;;
80936;SDS011;70395;51.382;7.074;2023-08-07T09:47:25;6.73;;;3.50;;
80936;SDS011;70395;51.382;7.074;2023-08-07T09:49:54;5.77;;;3.50;;
80936;SDS011;70395;51.382;7.074;2023-08-07T09:52:21;5.17;;;2.80;;
80936;SDS011;70395;51.382;7.074;2023-08-07T09:54:50;5.97;;;2.83;;
80936;SDS011;70395;51.382;7.074;2023-08-07T09:57:19;5.87;;;2.90;;
80936;SDS011;70395;51.382;7.074;2023-08-07T09:59:45;4.90;;;2.83;;
80936;SDS011;70395;51.382;7.074;2023-08-07T10:02:15;7.03;;;2.87;;
80936;SDS011;70395;51.382;7.074;2023-08-07T10:04:41;6.30;;;2.93;;
80936;SDS011;70395;51.382;7.074;2023-08-07T10:07:07;5.43;;;3.07;;
80936;SDS011;70395;51.382;7.074;2023-08-07T10:09:37;7.93;;;3.60;;
80936;SDS011;70395;51.382;7.074;2023-08-07T10:12:04;4.37;;;3.10;;
80936;SDS011;70395;51.382;7.074;2023-08-07T10:14:30;6.53;;;3.13;;
80936;SDS011;70395;51.382;7.074;2023-08-07T10:16:56;4.90;;;3.00;;
80936;SDS011;70395;51.382;7.074;2023-08-07T10:19:22;6.37;;;2.93;;
80936;SDS011;70395;51.382;7.074;2023-08-07T10:21:48;8.90;;;3.80;;
80936;SDS011;70395;51.382;7.074;2023-08-07T10:24:15;9.30;;;3.60;;
80936;SDS011;70395;51.382;7.074;2023-08-07T10:26:43;6.53;;;3.37;;
80936;SDS011;70395;51.382;7.074;2023-08-07T10:29:12;10.50;;;4.30;;
80936;SDS011;70395;51.382;7.074;2023-08-07T10:31:44;8.40;;;3.63;;
80936;SDS011;70395;51.382;7.074;2023-08-07T10:34:11;8.43;;;3.17;;
80936;SDS011;70395;51.382;7.074;2023-08-07T10:36:39;8.97;;;3.70;;
80936;SDS011;70395;51.382;7.074;2023-08-07T10:39:09;8.53;;;3.50;;
80936;SDS011;70395;51.382;7.074;2023-08-07T10:41:53;10.40;;;4.00;;
80936;SDS011;70395;51.382;7.074;2023-08-07T10:44:24;8.03;;;3.40;;
80936;SDS011;70395;51.382;7.074;2023-08-07T10:46:55;6.60;;;3.70;;
80936;SDS011;70395;51.382;7.074;2023-08-07T10:49:35;9.57;;;3.50;;
80936;SDS011;70395;51.382;7.074;2023-08-07T10:52:12;10.03;;;3.40;;
80936;SDS011;70395;51.382;7.074;2023-08-07T10:54:46;6.00;;;3.60;;
80936;SDS011;70395;51.382;7.074;2023-08-07T10:57:16;7.17;;;3.40;;
80936;SDS011;70395;51.382;7.074;2023-08-07T10:59:49;9.90;;;3.30;;
80936;SDS011;70395;51.382;7.074;2023-08-07T11:02:26;6.80;;;3.90;;
80936;SDS011;70395;51.382;7.074;2023-08-07T11:04:54;6.97;;;3.50;;
80936;SDS011;70395;51.382;7.074;2023-08-07T11:07:24;5.97;;;3.40;;
80936;SDS011;70395;51.382;7.074;2023-08-07T11:09:55;10.77;;;3.30;;
80936;SDS011;70395;51.382;7.074;2023-08-07T11:12:26;6.87;;;3.50;;
80936;SDS011;70395;51.382;7.074;2023-08-07T11:14:54;10.13;;;3.50;;
80936;SDS011;70395;51.382;7.074;2023-08-07T11:17:27;9.20;;;3.97;;
80936;SDS011;70395;51.382;7.074;2023-08-07T11:19:54;9.93;;;3.87;;
80936;SDS011;70395;51.382;7.074;2023-08-07T11:22:21;7.57;;;4.03;;
80936;SDS011;70395;51.382;7.074;2023-08-07T11:24:47;9.60;;;3.67;;
80936;SDS011;70395;51.382;7.074;2023-08-07T11:27:15;9.63;;;4.40;;
80936;SDS011;70395;51.382;7.074;2023-08-07T11:29:41;6.97;;;3.40;;
80936;SDS011;70395;51.382;7.074;2023-08-07T11:32:08;5.27;;;2.80;;
80936;SDS011;70395;51.382;7.074;2023-08-07T11:34:35;10.37;;;3.90;;
80936;SDS011;70395;51.382;7.074;2023-08-07T11:37:01;5.80;;;3.13;;
80936;SDS011;70395;51.382;7.074;2023-08-07T11:39:27;6.47;;;3.10;;
80936;SDS011;70395;51.382;7.074;2023-08-07T11:41:52;6.10;;;2.73;;
80936;SDS011;70395;51.382;7.074;2023-08-07T11:44:19;9.90;;;3.10;;
80936;SDS011;70395;51.382;7.074;2023-08-07T11:46:44;6.43;;;3.33;;
80936;SDS011;70395;51.382;7.074;2023-08-07T11:49:10;5.33;;;2.93;;
80936;SDS011;70395;51.382;7.074;2023-08-07T11:51:37;7.30;;;3.40;;
80936;SDS011;70395;51.382;7.074;2023-08-07T11:54:04;6.50;;;3.20;;
80936;SDS011;70395;51.382;7.074;2023-08-07T11:56:30;8.70;;;3.87;;
80936;SDS011;70395;51.382;7.074;2023-08-07T11:58:56;6.57;;;3.53;;
80936;SDS011;70395;51.382;7.074;2023-08-07T12:01:23;9.03;;;3.80;;
80936;SDS011;70395;51.382;7.074;2023-08-07T12:06:33;8.67;;;4.20;;
80936;SDS011;70395;51.382;7.074;2023-08-07T12:09:00;5.80;;;3.00;;
80936;SDS011;70395;51.382;7.074;2023-08-07T12:11:30;4.70;;;3.10;;
80936;SDS011;70395;51.382;7.074;2023-08-07T12:13:59;7.53;;;3.83;;
80936;SDS011;70395;51.382;7.074;2023-08-07T12:16:32;5.27;;;2.70;;
80936;SDS011;70395;51.382;7.074;2023-08-07T12:18:59;6.97;;;3.00;;
80936;SDS011;70395;51.382;7.074;2023-08-07T12:21:26;7.07;;;2.80;;
80936;SDS011;70395;51.382;7.074;2023-08-07T12:23:56;7.07;;;2.80;;
80936;SDS011;70395;51.382;7.074;2023-08-07T12:26:22;6.00;;;2.60;;
80936;SDS011;70395;51.382;7.074;2023-08-07T12:28:48;8.07;;;3.10;;
80936;SDS011;70395;51.382;7.074;2023-08-07T12:31:14;9.03;;;3.40;;
80936;SDS011;70395;51.382;7.074;2023-08-07T12:33:42;8.07;;;3.00;;
80936;SDS011;70395;51.382;7.074;2023-08-07T12:36:08;7.97;;;2.60;;
80936;SDS011;70395;51.382;7.074;2023-08-07T12:38:35;9.73;;;2.50;;
80936;SDS011;70395;51.382;7.074;2023-08-07T12:41:01;5.20;;;2.20;;
80936;SDS011;70395;51.382;7.074;2023-08-07T12:43:28;6.53;;;2.40;;
80936;SDS011;70395;51.382;7.074;2023-08-07T12:45:54;5.30;;;2.57;;
80936;SDS011;70395;51.382;7.074;2023-08-07T12:48:20;4.90;;;2.17;;
80936;SDS011;70395;51.382;7.074;2023-08-07T12:50:45;4.77;;;2.03;;
80936;SDS011;70395;51.382;7.074;2023-08-07T12:53:11;6.00;;;3.20;;
80936;SDS011;70395;51.382;7.074;2023-08-07T12:55:37;5.63;;;2.83;;
80936;SDS011;70395;51.382;7.074;2023-08-07T12:58:03;5.03;;;2.63;;
80936;SDS011;70395;51.382;7.074;2023-08-07T13:00:28;6.10;;;2.60;;
80936;SDS011;70395;51.382;7.074;2023-08-07T13:02:54;4.80;;;1.90;;
80936;SDS011;70395;51.382;7.074;2023-08-07T13:05:21;4.90;;;2.07;;
80936;SDS011;70395;51.382;7.074;2023-08-07T13:07:47;5.87;;;2.47;;
80936;SDS011;70395;51.382;7.074;2023-08-07T13:10:14;4.60;;;2.30;;
80936;SDS011;70395;51.382;7.074;2023-08-07T13:12:43;7.37;;;2.40;;
80936;SDS011;70395;51.382;7.074;2023-08-07T13:15:12;7.10;;;2.57;;
80936;SDS011;70395;51.382;7.074;2023-08-07T13:17:41;5.13;;;2.73;;
80936;SDS011;70395;51.382;7.074;2023-08-07T13:20:08;5.03;;;2.33;;
80936;SDS011;70395;51.382;7.074;2023-08-07T13:22:38;6.47;;;2.50;;
80936;SDS011;70395;51.382;7.074;2023-08-07T13:25:06;5.30;;;2.30;;
80936;SDS011;70395;51.382;7.074;2023-08-07T13:27:34;8.23;;;2.80;;
80936;SDS011;70395;51.382;7.074;2023-08-07T13:30:00;5.00;;;2.50;;
80936;SDS011;70395;51.382;7.074;2023-08-07T13:32:28;4.40;;;2.23;;
80936;SDS011;70395;51.382;7.074;2023-08-07T13:34:54;5.13;;;2.47;;
80936;SDS011;70395;51.382;7.074;2023-08-07T13:37:20;4.63;;;2.00;;
80936;SDS011;70395;51.382;7.074;2023-08-07T13:39:46;5.40;;;1.90;;
80936;SDS011;70395;51.382;7.074;2023-08-07T13:42:14;3.83;;;2.10;;
80936;SDS011;70395;51.382;7.074;2023-08-07T13:44:40;3.47;;;1.63;;
80936;SDS011;70395;51.382;7.074;2023-08-07T13:47:06;4.47;;;1.70;;
80936;SDS011;70395;51.382;7.074;2023-08-07T13:49:32;5.47;;;1.80;;
80936;SDS011;70395;51.382;7.074;2023-08-07T13:51:59;7.27;;;2.20;;
80936;SDS011;70395;51.382;7.074;2023-08-07T13:54:25;1.77;;;1.63;;
80936;SDS011;70395;51.382;7.074;2023-08-07T13:56:50;3.37;;;1.40;;
80936;SDS011;70395;51.382;7.074;2023-08-07T13:59:16;4.37;;;1.70;;
80936;SDS011;70395;51.382;7.074;2023-08-07T14:01:42;4.73;;;2.10;;
80936;SDS011;70395;51.382;7.074;2023-08-07T14:04:08;4.07;;;1.70;;
80936;SDS011;70395;51.382;7.074;2023-08-07T14:06:34;5.63;;;1.97;;
80936;SDS011;70395;51.382;7.074;2023-08-07T14:09:00;3.23;;;1.83;;
80936;SDS011;70395;51.382;7.074;2023-08-07T14:11:26;3.23;;;1.73;;
80936;SDS011;70395;51.382;7.074;2023-08-07T14:13:55;3.43;;;1.70;;
80936;SDS011;70395;51.382;7.074;2023-08-07T14:16:24;4.60;;;1.73;;
80936;SDS011;70395;51.382;7.074;2023-08-07T14:18:50;4.23;;;2.03;;
80936;SDS011;70395;51.382;7.074;2023-08-07T14:21:17;5.50;;;2.67;;
80936;SDS011;70395;51.382;7.074;2023-08-07T14:23:42;3.93;;;1.70;;
80936;SDS011;70395;51.382;7.074;2023-08-07T14:26:10;4.53;;;2.13;;
80936;SDS011;70395;51.382;7.074;2023-08-07T14:28:37;4.10;;;2.03;;
80936;SDS011;70395;51.382;7.074;2023-08-07T14:31:06;4.03;;;2.03;;
80936;SDS011;70395;51.382;7.074;2023-08-07T14:33:33;5.20;;;2.50;;
80936;SDS011;70395;51.382;7.074;2023-08-07T14:35:59;3.67;;;2.10;;
80936;SDS011;70395;51.382;7.074;2023-08-07T14:38:25;2.63;;;1.73;;
80936;SDS011;70395;51.382;7.074;2023-08-07T14:40:51;4.97;;;2.00;;
80936;SDS011;70395;51.382;7.074;2023-08-07T14:43:17;2.73;;;1.70;;
80936;SDS011;70395;51.382;7.074;2023-08-07T14:45:43;4.07;;;1.80;;
80936;SDS011;70395;51.382;7.074;2023-08-07T14:48:09;2.27;;;1.57;;
80936;SDS011;70395;51.382;7.074;2023-08-07T14:50:35;3.07;;;1.63;;